Time;durP1;ratioP1;P1;durP2;ratioP2;P2;SDS_P1;SDS_P2;PMS_P1;PMS_P2;Temp;Humidity;BMP_temperature;BMP_pressure;BME280_temperature;BME280_humidity;BME280_pressure;Samples;Min_cycle;Max_cycle;Signal;HPM_P1;HPM_P2
2022/10/06 00:01:05;;;;;;;6.88;1.55;;;;;;;13.49;88.89;102066.56;5069358;28;20111;-65
2022/10/06 00:03:31;;;;;;;5.05;1.00;;;;;;;13.46;89.33;102074.94;5069207;28;20032;-65
2022/10/06 00:06:00;;;;;;;6.95;1.23;;;;;;;13.44;89.61;102086.88;5069239;28;20036;-65
2022/10/06 00:08:26;;;;;;;5.60;1.33;;;;;;;13.40;89.73;102096.31;5069045;28;20081;-65
2022/10/06 00:10:55;;;;;;;3.35;1.30;;;;;;;13.36;89.92;102094.00;5069093;28;20028;-71
2022/10/06 00:13:24;;;;;;;6.40;1.88;;;;;;;13.31;90.06;102095.56;5069128;28;20036;-70
2022/10/06 00:15:50;;;;;;;7.00;2.03;;;;;;;13.31;90.10;102107.13;5069186;28;20029;-70
2022/10/06 00:18:15;;;;;;;6.85;1.73;;;;;;;13.29;90.26;102109.16;5069539;28;20463;-70
2022/10/06 00:20:42;;;;;;;6.72;1.95;;;;;;;13.24;89.52;102105.31;5073109;28;20115;-71
2022/10/06 00:23:08;;;;;;;8.68;1.45;;;;;;;13.20;89.68;102115.56;5072606;28;20024;-71
2022/10/06 00:25:34;;;;;;;7.60;2.17;;;;;;;13.22;89.11;102120.75;5073121;28;20052;-71
2022/10/06 00:27:59;;;;;;;7.55;1.13;;;;;;;13.21;88.57;102130.63;5073052;28;20523;-71
2022/10/06 00:30:26;;;;;;;7.55;1.33;;;;;;;13.22;87.83;102131.47;5073182;28;20056;-70
2022/10/06 00:32:59;;;;;;;6.15;2.13;;;;;;;13.20;88.04;102138.84;5072884;28;20133;-71
2022/10/06 00:35:26;;;;;;;3.13;1.20;;;;;;;13.18;87.64;102135.50;5055274;28;20438;-70
2022/10/06 00:37:52;;;;;;;6.35;1.52;;;;;;;13.16;87.66;102141.88;5072793;28;20441;-71
2022/10/06 00:40:18;;;;;;;7.20;1.52;;;;;;;13.11;87.75;102140.78;5072797;28;20111;-70
2022/10/06 00:42:52;;;;;;;12.15;2.58;;;;;;;13.06;87.15;102151.19;5072801;28;20035;-70
2022/10/06 00:45:22;;;;;;;9.43;1.20;;;;;;;13.08;87.34;102160.72;5072288;28;20990;-70
2022/10/06 00:47:47;;;;;;;5.03;1.33;;;;;;;13.05;87.54;102161.09;5072758;28;20128;-71
2022/10/06 00:50:13;;;;;;;7.57;2.20;;;;;;;13.03;87.42;102159.59;5072672;28;20123;-70
2022/10/06 00:52:40;;;;;;;4.63;1.00;;;;;;;12.95;87.86;102155.16;5072267;28;20032;-70
2022/10/06 00:55:09;;;;;;;3.25;1.25;;;;;;;12.96;87.53;102167.50;5072406;28;20361;-71
2022/10/06 00:57:37;;;;;;;6.35;2.28;;;;;;;12.92;87.97;102176.94;5072505;28;20087;-70
2022/10/06 01:00:06;;;;;;;12.82;1.75;;;;;;;12.93;87.97;102183.94;5071909;28;20494;-71
2022/10/06 01:02:41;;;;;;;7.55;1.27;;;;;;;12.93;88.19;102176.72;5072330;28;20476;-70
2022/10/06 01:05:12;;;;;;;6.47;1.75;;;;;;;12.86;88.64;102166.91;5072200;28;20029;-70
2022/10/06 01:07:37;;;;;;;6.97;1.85;;;;;;;12.87;89.03;102176.63;5072336;28;20071;-70
2022/10/06 01:10:03;;;;;;;7.28;1.42;;;;;;;12.83;89.15;102184.16;5072020;28;20692;-70
2022/10/06 01:12:31;;;;;;;8.23;2.20;;;;;;;12.76;90.01;102185.91;5070852;28;20048;-70
2022/10/06 01:14:57;;;;;;;6.20;1.42;;;;;;;12.75;90.30;102189.59;5072193;28;20028;-70
2022/10/06 01:17:35;;;;;;;6.30;1.20;;;;;;;12.71;90.84;102194.47;5070849;28;20090;-70
2022/10/06 01:20:07;;;;;;;7.47;1.85;;;;;;;12.70;91.10;102202.66;5072136;28;20036;-70
2022/10/06 01:22:36;;;;;;;5.07;1.00;;;;;;;12.65;91.48;102205.91;5072111;28;20031;-70
2022/10/06 01:25:04;;;;;;;7.22;1.75;;;;;;;12.64;91.55;102214.09;5071943;28;20652;-70
2022/10/06 01:27:31;;;;;;;9.43;1.50;;;;;;;12.61;91.34;102212.59;5071848;28;20090;-70
2022/10/06 01:29:58;;;;;;;7.70;1.35;;;;;;;12.59;91.61;102217.28;5071609;28;20020;-70
2022/10/06 01:32:26;;;;;;;5.07;1.48;;;;;;;12.57;91.75;102224.66;5071803;28;20040;-70
2022/10/06 01:34:52;;;;;;;4.25;2.05;;;;;;;12.59;91.46;102222.66;5071791;28;20035;-70
2022/10/06 01:37:17;;;;;;;5.32;2.22;;;;;;;12.56;91.43;102228.34;5071667;28;20044;-65
2022/10/06 01:39:43;;;;;;;4.18;1.50;;;;;;;12.58;91.06;102230.88;5071627;28;20161;-65
2022/10/06 01:42:09;;;;;;;4.47;1.80;;;;;;;12.54;91.61;102238.41;5071737;28;20107;-65
2022/10/06 01:44:34;;;;;;;3.70;1.00;;;;;;;12.53;90.85;102233.25;5071638;28;20031;-66
2022/10/06 01:47:03;;;;;;;14.93;3.05;;;;;;;12.50;90.92;102237.09;5071190;28;20028;-65
2022/10/06 01:49:28;;;;;;;5.10;2.40;;;;;;;12.47;90.84;102243.63;5071568;28;20115;-65
2022/10/06 01:51:54;;;;;;;5.82;1.15;;;;;;;12.43;90.58;102234.28;5071310;28;20127;-65
2022/10/06 01:54:19;;;;;;;5.32;1.27;;;;;;;12.43;90.55;102239.63;5071454;28;20070;-65
2022/10/06 01:56:44;;;;;;;7.63;1.30;;;;;;;12.42;90.29;102246.00;5069842;28;20060;-65
2022/10/06 01:59:10;;;;;;;8.68;2.70;;;;;;;12.41;90.40;102257.69;5071363;28;20056;-65
2022/10/06 02:01:35;;;;;;;7.47;1.83;;;;;;;12.41;89.92;102254.19;5069745;28;20111;-65
2022/10/06 02:04:00;;;;;;;7.32;1.50;;;;;;;12.39;89.89;102256.19;5071237;28;20210;-65
2022/10/06 02:06:26;;;;;;;5.13;2.05;;;;;;;12.35;89.93;102263.75;5070665;28;20036;-65
2022/10/06 02:08:51;;;;;;;5.63;1.50;;;;;;;12.33;89.81;102264.94;5069588;28;20056;-65
2022/10/06 02:11:17;;;;;;;4.90;1.23;;;;;;;12.34;90.04;102266.59;5071192;28;20034;-65
2022/10/06 02:13:43;;;;;;;12.57;2.83;;;;;;;12.30;89.83;102263.44;5071125;28;20029;-65
2022/10/06 02:16:10;;;;;;;3.33;1.40;;;;;;;12.25;90.09;102266.63;5071113;28;20214;-65
2022/10/06 02:18:36;;;;;;;5.55;1.65;;;;;;;12.26;89.95;102275.47;5071077;28;20027;-65
2022/10/06 02:21:02;;;;;;;3.72;1.73;;;;;;;12.25;90.12;102280.00;5070899;28;20040;-65
2022/10/06 02:23:29;;;;;;;9.35;2.13;;;;;;;12.22;89.94;102285.69;5071015;28;20035;-65
2022/10/06 02:26:02;;;;;;;5.18;1.40;;;;;;;12.19;89.93;102296.75;5070951;28;20032;-65
2022/10/06 02:28:27;;;;;;;9.63;1.50;;;;;;;12.19;90.01;102295.91;5070775;28;20060;-65
2022/10/06 02:30:54;;;;;;;7.07;1.75;;;;;;;12.16;89.80;102297.09;5070644;28;20120;-65
2022/10/06 02:33:19;;;;;;;5.57;1.92;;;;;;;12.11;89.62;102294.09;5070727;28;20036;-65
2022/10/06 02:35:45;;;;;;;8.40;2.25;;;;;;;12.13;89.63;102308.13;5070381;28;20060;-65
2022/10/06 02:38:11;;;;;;;7.05;1.83;;;;;;;12.12;89.66;102309.13;5070388;28;20086;-65
2022/10/06 02:40:36;;;;;;;4.63;1.10;;;;;;;12.09;89.12;102306.78;5069920;28;20645;-65
2022/10/06 02:43:02;;;;;;;6.80;2.78;;;;;;;12.12;89.22;102311.78;5069740;28;20032;-65
2022/10/06 02:45:28;;;;;;;5.88;2.33;;;;;;;12.13;89.00;102324.19;5070051;28;20030;-65
2022/10/06 02:47:53;;;;;;;10.95;2.38;;;;;;;12.12;88.92;102327.00;5069732;28;20043;-65
2022/10/06 02:50:19;;;;;;;8.15;1.95;;;;;;;12.09;88.93;102322.00;5069844;28;20036;-65
2022/10/06 02:52:45;;;;;;;10.70;1.55;;;;;;;12.05;88.88;102330.38;5070295;28;20028;-65
2022/10/06 02:55:12;;;;;;;8.77;2.45;;;;;;;12.02;89.22;102329.88;5070160;28;20082;-65
2022/10/06 02:57:38;;;;;;;6.45;1.27;;;;;;;12.00;89.33;102339.91;5069915;28;20032;-65
2022/10/06 03:00:07;;;;;;;9.50;1.83;;;;;;;11.98;89.29;102350.78;5070168;28;20040;-65
2022/10/06 03:02:33;;;;;;;8.93;2.05;;;;;;;11.97;89.24;102348.25;5069516;28;20029;-65
2022/10/06 03:04:58;;;;;;;5.47;1.27;;;;;;;11.94;89.23;102343.25;5069752;28;20081;-65
2022/10/06 03:07:24;;;;;;;6.57;1.55;;;;;;;11.93;89.44;102352.28;5070263;28;20036;-65
2022/10/06 03:09:49;;;;;;;7.30;2.95;;;;;;;11.89;89.77;102353.63;5069747;28;20110;-65
2022/10/06 03:12:14;;;;;;;11.63;1.67;;;;;;;11.85;89.30;102364.63;5069794;28;20033;-65
2022/10/06 03:14:40;;;;;;;12.00;2.90;;;;;;;11.82;89.61;102364.97;5069262;28;20032;-65
2022/10/06 03:17:08;;;;;;;13.85;4.57;;;;;;;11.79;89.87;102370.66;5069413;28;20482;-65
2022/10/06 03:19:34;;;;;;;8.95;1.60;;;;;;;11.77;90.06;102372.66;5069837;28;20576;-65
2022/10/06 03:21:59;;;;;;;5.82;2.03;;;;;;;11.75;90.10;102371.97;5069855;28;20024;-64
2022/10/06 03:24:25;;;;;;;6.50;1.20;;;;;;;11.75;89.84;102365.78;5069800;28;20028;-65
2022/10/06 03:26:50;;;;;;;8.98;1.63;;;;;;;11.72;90.22;102379.50;5068344;28;20060;-65
2022/10/06 03:29:15;;;;;;;9.70;2.67;;;;;;;11.67;90.49;102376.47;5069664;28;20056;-65
2022/10/06 03:31:42;;;;;;;14.98;3.20;;;;;;;11.65;90.67;102379.31;5069686;28;20407;-65
2022/10/06 03:34:08;;;;;;;7.75;2.08;;;;;;;11.63;90.70;102386.66;5068273;28;20459;-65
2022/10/06 03:36:34;;;;;;;6.85;2.38;;;;;;;11.61;90.87;102392.19;5069609;28;20516;-65
2022/10/06 03:39:00;;;;;;;7.85;1.45;;;;;;;11.60;90.93;102395.00;5069594;28;20033;-65
2022/10/06 03:41:28;;;;;;;4.85;1.90;;;;;;;11.56;91.13;102402.53;5069473;28;20605;-65
2022/10/06 03:43:55;;;;;;;7.13;2.05;;;;;;;11.54;91.48;102411.72;5068119;28;20499;-65
2022/10/06 03:46:23;;;;;;;6.20;1.77;;;;;;;11.51;91.77;102406.69;5069459;28;20093;-65
2022/10/06 03:48:51;;;;;;;3.58;1.40;;;;;;;11.49;91.86;102406.84;5069444;28;20044;-65
2022/10/06 03:51:16;;;;;;;6.20;1.77;;;;;;;11.45;92.19;102412.69;5069097;28;20033;-65
2022/10/06 03:53:46;;;;;;;7.03;1.60;;;;;;;11.36;92.56;102399.31;5069292;28;20037;-65
2022/10/06 03:56:29;;;;;;;7.18;1.65;;;;;;;11.38;92.73;102420.53;5068011;28;20283;-65
2022/10/06 03:59:12;;;;;;;6.47;2.80;;;;;;;11.33;92.91;102415.66;5069153;28;20020;-65
2022/10/06 04:01:43;;;;;;;5.88;1.50;;;;;;;11.32;93.21;102437.22;5069528;28;20021;-65
2022/10/06 04:04:09;;;;;;;7.93;2.08;;;;;;;11.29;93.12;102442.84;5069275;28;20063;-65
2022/10/06 04:06:37;;;;;;;5.85;1.73;;;;;;;11.27;93.31;102444.88;5069056;28;20081;-65
2022/10/06 04:09:05;;;;;;;5.72;1.83;;;;;;;11.25;93.43;102450.38;5069017;28;20053;-65
2022/10/06 04:11:33;;;;;;;5.63;1.90;;;;;;;11.24;93.57;102455.84;5068957;28;20036;-65
2022/10/06 04:14:02;;;;;;;5.75;2.13;;;;;;;11.20;93.58;102463.38;5069169;28;20032;-65
2022/10/06 04:16:30;;;;;;;7.05;2.33;;;;;;;11.19;93.59;102459.03;5069051;28;20024;-65
2022/10/06 04:18:58;;;;;;;6.35;1.92;;;;;;;11.15;93.68;102469.19;5069141;28;20032;-65
2022/10/06 04:21:25;;;;;;;8.38;2.35;;;;;;;11.11;93.75;102473.19;5069136;28;20141;-65
2022/10/06 04:23:52;;;;;;;8.52;2.70;;;;;;;11.07;93.93;102471.00;5069069;28;20033;-65
2022/10/06 04:26:19;;;;;;;9.82;3.33;;;;;;;11.04;94.17;102474.81;5069087;28;20055;-65
2022/10/06 04:28:45;;;;;;;13.45;2.00;;;;;;;11.01;94.27;102483.16;5069050;28;20086;-65
2022/10/06 04:31:23;;;;;;;6.28;2.25;;;;;;;10.99;94.61;102485.13;5069019;28;20472;-65
2022/10/06 04:33:54;;;;;;;16.58;3.42;;;;;;;10.99;94.27;102484.31;5069059;28;20112;-65
2022/10/06 04:36:28;;;;;;;9.30;2.30;;;;;;;10.97;94.33;102487.94;5069180;28;20062;-65
2022/10/06 04:38:57;;;;;;;9.98;2.10;;;;;;;10.93;94.17;102488.44;5068783;28;20029;-65
2022/10/06 04:41:24;;;;;;;12.07;1.98;;;;;;;10.91;94.46;102496.59;5068737;28;20044;-65
2022/10/06 04:43:50;;;;;;;11.55;2.25;;;;;;;10.89;94.40;102497.75;5068906;28;20040;-65
2022/10/06 04:46:16;;;;;;;10.90;2.10;;;;;;;10.86;94.46;102500.75;5068798;28;20107;-65
2022/10/06 04:48:42;;;;;;;10.48;2.47;;;;;;;10.82;94.57;102500.25;5068777;28;20028;-65
2022/10/06 04:51:15;;;;;;;19.30;2.50;;;;;;;10.72;94.38;102487.00;5068480;28;20174;-65
2022/10/06 04:53:44;;;;;;;12.55;2.10;;;;;;;10.81;94.30;102511.88;5067203;28;20028;-65
2022/10/06 04:56:15;;;;;;;10.85;2.63;;;;;;;10.79;94.44;102510.38;5068753;28;20151;-65
2022/10/06 04:58:46;;;;;;;11.75;2.00;;;;;;;10.72;94.29;102516.34;5068751;28;20505;-65
2022/10/06 05:01:16;;;;;;;14.38;3.28;;;;;;;10.73;94.76;102515.34;5068680;28;20059;-65
2022/10/06 05:03:42;;;;;;;6.57;2.13;;;;;;;10.70;94.62;102522.84;5068491;28;20105;-65
2022/10/06 05:06:12;;;;;;;8.77;2.40;;;;;;;10.66;95.01;102522.31;5071622;28;20488;-65
2022/10/06 05:08:38;;;;;;;12.88;1.92;;;;;;;10.61;94.62;102527.28;5071405;28;20505;-65
2022/10/06 05:11:07;;;;;;;6.47;1.90;;;;;;;10.62;94.73;102538.78;5072197;28;20170;-65
2022/10/06 05:13:33;;;;;;;8.40;3.03;;;;;;;10.59;94.65;102545.28;5072240;28;20479;-65
2022/10/06 05:16:00;;;;;;;10.20;2.08;;;;;;;10.57;94.91;102549.09;5070874;28;20851;-66
2022/10/06 05:18:27;;;;;;;12.02;2.38;;;;;;;10.56;95.03;102556.25;5072067;28;20070;-65
2022/10/06 05:21:05;;;;;;;12.23;3.30;;;;;;;10.55;94.32;102548.41;5072113;28;20024;-65
2022/10/06 05:23:32;;;;;;;9.05;2.83;;;;;;;10.51;94.99;102551.38;5072028;28;20040;-65
2022/10/06 05:25:59;;;;;;;7.72;0.98;;;;;;;10.42;94.77;102548.78;5071993;28;20425;-65
2022/10/06 05:28:26;;;;;;;14.55;3.45;;;;;;;10.46;94.80;102567.00;5072071;28;20150;-65
2022/10/06 05:31:11;;;;;;;8.23;1.83;;;;;;;10.44;95.08;102563.66;5071843;28;20099;-65
2022/10/06 05:33:36;;;;;;;9.60;2.60;;;;;;;10.40;94.99;102567.63;5070544;28;20029;-65
2022/10/06 05:36:05;;;;;;;10.50;2.95;;;;;;;10.37;94.91;102577.75;5071844;28;20101;-65
2022/10/06 05:38:31;;;;;;;6.65;1.95;;;;;;;10.34;95.01;102578.88;5071874;28;20033;-65
2022/10/06 05:41:05;;;;;;;8.02;1.92;;;;;;;10.33;95.57;102587.06;5071746;28;20502;-65
2022/10/06 05:43:31;;;;;;;10.23;2.42;;;;;;;10.28;95.34;102590.16;5071780;28;20032;-65
2022/10/06 05:45:59;;;;;;;9.15;3.08;;;;;;;10.27;95.51;102592.00;5071641;28;20029;-65
2022/10/06 05:48:25;;;;;;;8.00;2.17;;;;;;;10.20;95.40;102590.06;5071511;28;20498;-65
2022/10/06 05:51:01;;;;;;;12.63;3.17;;;;;;;10.22;95.50;102599.59;5071487;28;20032;-65
2022/10/06 05:53:30;;;;;;;13.90;2.72;;;;;;;10.18;95.46;102600.03;5071145;28;20025;-65
2022/10/06 05:56:04;;;;;;;15.15;2.80;;;;;;;10.18;95.63;102603.53;5071219;28;20032;-65
2022/10/06 05:58:30;;;;;;;10.93;2.42;;;;;;;10.16;95.65;102610.84;5071362;28;20036;-65
2022/10/06 06:01:11;;;;;;;7.57;2.10;;;;;;;10.18;95.46;102613.38;5071370;28;20071;-65
2022/10/06 06:03:38;;;;;;;15.10;3.13;;;;;;;10.17;95.58;102611.69;5071483;28;20099;-65
2022/10/06 06:06:13;;;;;;;10.48;2.95;;;;;;;10.19;95.37;102621.22;5071207;28;20483;-65
2022/10/06 06:08:38;;;;;;;9.98;2.58;;;;;;;10.16;95.05;102618.00;5070257;28;20098;-65
2022/10/06 06:11:06;;;;;;;18.15;2.58;;;;;;;10.18;94.94;102626.69;5070673;28;20024;-65
2022/10/06 06:13:32;;;;;;;11.55;2.53;;;;;;;10.17;95.12;102636.53;5070844;28;20036;-65
2022/10/06 06:16:03;;;;;;;14.98;3.78;;;;;;;10.16;95.19;102647.34;5070906;28;20367;-65
2022/10/06 06:18:30;;;;;;;14.20;3.80;;;;;;;10.12;94.98;102646.81;5070842;28;20028;-65
2022/10/06 06:20:57;;;;;;;9.80;2.78;;;;;;;10.15;95.19;102641.16;5070771;28;20089;-65
2022/10/06 06:23:23;;;;;;;12.50;3.10;;;;;;;10.17;95.14;102649.88;5069568;28;20035;-65
2022/10/06 06:25:59;;;;;;;16.52;3.15;;;;;;;10.17;95.03;102643.69;5070650;28;20037;-65
2022/10/06 06:28:25;;;;;;;10.15;2.67;;;;;;;10.15;94.96;102638.50;5070847;28;20036;-65
2022/10/06 06:31:01;;;;;;;13.82;2.22;;;;;;;10.15;95.20;102645.66;5070688;28;20032;-65
2022/10/06 06:33:28;;;;;;;8.50;2.38;;;;;;;10.18;95.06;102656.03;5070547;28;20064;-65
2022/10/06 06:35:53;;;;;;;13.05;2.53;;;;;;;10.12;95.14;102644.13;5070474;28;20064;-65
2022/10/06 06:38:18;;;;;;;11.35;2.80;;;;;;;10.21;94.84;102656.56;5070516;28;20075;-65
2022/10/06 06:40:43;;;;;;;8.68;3.15;;;;;;;10.22;95.09;102654.75;5070713;28;20033;-64
2022/10/06 06:43:11;;;;;;;9.55;2.90;;;;;;;10.22;94.87;102665.41;5070403;28;20024;-65
2022/10/06 06:45:36;;;;;;;12.23;2.80;;;;;;;10.25;95.14;102665.13;5070468;28;20113;-65
2022/10/06 06:48:03;;;;;;;15.95;4.47;;;;;;;10.26;94.88;102672.13;5070464;28;20127;-63
2022/10/06 06:50:28;;;;;;;15.30;3.42;;;;;;;10.28;95.19;102676.34;5070288;28;20025;-64
2022/10/06 06:52:54;;;;;;;10.15;1.95;;;;;;;10.29;94.96;102674.50;5070108;28;20024;-64
2022/10/06 06:55:20;;;;;;;10.10;3.67;;;;;;;10.25;94.92;102663.28;5070215;28;20037;-64
2022/10/06 06:57:45;;;;;;;14.35;3.08;;;;;;;10.35;94.75;102684.59;5070086;28;20029;-64
2022/10/06 07:00:11;;;;;;;11.48;2.15;;;;;;;10.37;94.60;102687.09;5069900;28;20119;-64
2022/10/06 07:02:37;;;;;;;17.55;3.60;;;;;;;10.44;94.54;102702.34;5070039;28;20104;-64
2022/10/06 07:05:02;;;;;;;9.18;2.92;;;;;;;10.48;94.58;102694.91;5069990;28;20028;-63
2022/10/06 07:07:28;;;;;;;13.98;3.72;;;;;;;10.49;94.30;102692.06;5068639;28;20028;-63
2022/10/06 07:09:53;;;;;;;11.98;2.78;;;;;;;10.56;94.68;102707.47;5051724;28;20388;-63
2022/10/06 07:12:19;;;;;;;9.27;2.55;;;;;;;10.62;94.65;102704.22;5069682;28;20482;-63
2022/10/06 07:25:41;;;;;;;9.85;2.05;;;;;;;10.85;93.27;102732.13;5069987;28;20102;-64
2022/10/06 07:28:07;;;;;;;10.93;3.25;;;;;;;10.89;93.44;102730.81;5069372;28;20032;-64
2022/10/06 07:30:32;;;;;;;11.10;3.55;;;;;;;10.96;93.20;102739.91;5065270;28;20021;-64
2022/10/06 07:32:57;;;;;;;13.38;2.63;;;;;;;11.03;93.26;102749.97;5065093;28;20034;-65
2022/10/06 07:35:23;;;;;;;13.30;3.25;;;;;;;11.10;93.05;102753.72;5065031;28;20067;-64
2022/10/06 07:37:50;;;;;;;13.57;3.80;;;;;;;11.32;92.91;102757.75;5063229;28;20055;-64
2022/10/06 07:40:16;;;;;;;12.20;3.25;;;;;;;11.73;90.85;102764.22;5065195;28;20476;-64
2022/10/06 07:42:47;;;;;;;6.35;2.25;;;;;;;11.92;89.85;102776.59;5065691;28;20073;-64
2022/10/06 07:48:03;;;;;;;12.48;2.55;;;;;;;11.81;88.97;102782.16;5065187;28;20089;-64
2022/10/06 07:50:28;;;;;;;8.57;2.30;;;;;;;11.79;88.21;102782.31;5064672;28;20106;-64
2022/10/06 07:52:53;;;;;;;12.00;3.63;;;;;;;11.80;88.81;102786.66;5065048;28;20036;-64
2022/10/06 07:55:19;;;;;;;14.13;2.63;;;;;;;11.79;89.12;102789.50;5064497;28;20043;-64
2022/10/06 07:57:45;;;;;;;12.45;3.10;;;;;;;11.80;88.50;102793.84;5065058;28;20507;-67
2022/10/06 08:00:14;;;;;;;10.52;2.88;;;;;;;11.79;88.57;102787.69;5064763;28;20024;-68
2022/10/06 08:02:39;;;;;;;19.25;4.68;;;;;;;11.87;88.00;102794.06;5064821;28;20031;-66
2022/10/06 08:05:05;;;;;;;12.98;3.13;;;;;;;11.90;88.32;102799.97;5068535;28;20029;-67
2022/10/06 08:07:31;;;;;;;15.10;3.53;;;;;;;11.97;89.07;102797.50;5069262;28;20041;-67
2022/10/06 08:09:56;;;;;;;8.82;3.17;;;;;;;12.04;88.16;102802.03;5069044;28;20062;-67
2022/10/06 08:12:36;;;;;;;9.43;2.50;;;;;;;12.09;87.46;102800.75;5068656;28;20056;-67
2022/10/06 08:15:05;;;;;;;15.68;3.10;;;;;;;12.16;87.63;102802.63;5068920;28;20032;-67
2022/10/06 08:17:30;;;;;;;12.40;4.85;;;;;;;12.18;87.45;102802.44;5068884;28;20094;-67
2022/10/06 08:19:55;;;;;;;12.68;3.33;;;;;;;12.30;86.80;102805.72;5068960;28;20029;-67
2022/10/06 08:22:21;;;;;;;9.70;2.10;;;;;;;12.37;87.08;102807.59;5068564;28;20020;-67
2022/10/06 08:24:47;;;;;;;10.13;2.83;;;;;;;12.43;86.85;102804.25;5069095;28;20035;-67
2022/10/06 08:27:12;;;;;;;14.65;3.90;;;;;;;12.53;85.75;102820.19;5068935;28;20032;-67
2022/10/06 08:29:38;;;;;;;10.00;2.88;;;;;;;12.57;85.65;102824.22;5068916;28;20039;-67
2022/10/06 08:32:03;;;;;;;8.98;2.53;;;;;;;12.62;84.87;102827.25;5068644;28;20051;-67
2022/10/06 08:34:29;;;;;;;5.95;2.13;;;;;;;12.72;85.44;102833.31;5068921;28;20041;-67
2022/10/06 08:36:56;;;;;;;20.60;4.63;;;;;;;12.84;85.86;102830.34;5067439;28;20040;-67
2022/10/06 08:39:21;;;;;;;8.20;3.25;;;;;;;12.89;84.33;102833.34;5069504;28;20040;-67
2022/10/06 08:41:50;;;;;;;12.13;2.72;;;;;;;12.93;84.00;102843.59;5072946;28;20031;-67
2022/10/06 08:44:19;;;;;;;8.65;2.80;;;;;;;12.99;84.18;102841.25;5072873;28;20115;-67
2022/10/06 08:46:54;;;;;;;17.25;3.58;;;;;;;13.07;84.32;102852.84;5072665;28;20128;-67
2022/10/06 08:49:23;;;;;;;13.60;2.78;;;;;;;13.14;83.14;102853.84;5072761;28;20119;-67
2022/10/06 08:52:14;;;;;;;15.27;2.83;;;;;;;13.23;84.20;102852.03;5072577;28;20027;-67
2022/10/06 08:54:58;;;;;;;10.27;2.28;;;;;;;13.35;82.84;102863.28;5072435;28;20063;-67
2022/10/06 08:57:37;;;;;;;12.23;3.00;;;;;;;13.47;83.23;102855.78;5072553;28;20476;-67
2022/10/06 09:00:10;;;;;;;14.93;3.58;;;;;;;13.58;82.60;102860.81;5072979;28;20032;-67
2022/10/06 09:02:40;;;;;;;6.78;2.45;;;;;;;13.61;81.44;102856.97;5072331;28;20024;-67
2022/10/06 09:05:08;;;;;;;11.43;4.40;;;;;;;13.67;81.75;102857.09;5071977;28;20024;-67
2022/10/06 09:07:37;;;;;;;10.27;2.28;;;;;;;13.76;81.26;102866.00;5072160;28;20501;-67
2022/10/06 09:10:11;;;;;;;14.48;2.42;;;;;;;13.84;80.79;102871.38;5071796;28;20072;-67
2022/10/06 09:12:56;;;;;;;12.05;2.97;;;;;;;13.93;79.42;102878.38;5071977;28;20028;-67
2022/10/06 09:15:58;;;;;;;15.07;3.10;;;;;;;13.99;80.41;102875.03;5072085;28;20110;-67
2022/10/06 09:18:36;;;;;;;13.40;2.65;;;;;;;14.01;78.89;102883.75;5072152;28;20024;-67
2022/10/06 09:21:29;;;;;;;12.15;2.10;;;;;;;14.02;79.59;102887.28;5072093;28;20048;-67
2022/10/06 09:24:02;;;;;;;10.35;2.13;;;;;;;14.00;78.19;102895.50;5071955;28;20108;-67
2022/10/06 09:26:32;;;;;;;12.05;2.38;;;;;;;14.11;79.17;102901.53;5071964;28;20029;-67
2022/10/06 09:28:58;;;;;;;12.10;3.17;;;;;;;14.21;79.46;102897.66;5071812;28;20039;-67
2022/10/06 09:31:26;;;;;;;10.55;2.13;;;;;;;14.33;78.49;102895.47;5071649;28;20032;-67
2022/10/06 09:34:00;;;;;;;11.10;1.95;;;;;;;14.33;77.25;102887.41;5071823;28;20028;-67
2022/10/06 09:36:25;;;;;;;10.13;3.17;;;;;;;14.46;77.74;102894.91;5071999;28;20442;-67
2022/10/06 09:38:56;;;;;;;7.82;2.47;;;;;;;14.52;76.27;102890.72;5071763;28;20033;-67
2022/10/06 09:41:33;;;;;;;11.02;2.65;;;;;;;14.48;75.50;102898.25;5071727;28;20026;-67
2022/10/06 09:44:03;;;;;;;7.22;1.80;;;;;;;14.50;75.70;102898.09;5071692;28;20024;-67
2022/10/06 09:46:30;;;;;;;10.70;2.15;;;;;;;14.48;75.39;102900.94;5071581;28;20097;-67
2022/10/06 09:49:19;;;;;;;12.40;1.88;;;;;;;14.61;76.96;102895.88;5071560;28;20032;-67
2022/10/06 09:52:14;;;;;;;7.38;3.08;;;;;;;14.82;76.88;102898.00;5071106;28;20029;-67
2022/10/06 09:54:42;;;;;;;11.68;3.10;;;;;;;14.82;74.52;102903.38;5066766;28;20040;-68
2022/10/06 09:57:22;;;;;;;12.25;2.33;;;;;;;14.75;73.64;102902.41;5071436;28;20024;-67
2022/10/06 09:59:47;;;;;;;5.13;1.30;;;;;;;14.84;73.12;102906.72;5071327;28;20032;-67
2022/10/06 10:02:36;;;;;;;15.40;2.40;;;;;;;14.93;74.38;102906.69;5071417;28;20035;-67
2022/10/06 10:05:17;;;;;;;9.35;2.22;;;;;;;14.97;71.95;102902.66;5071286;28;20399;-67
2022/10/06 10:07:42;;;;;;;10.90;1.85;;;;;;;15.11;73.64;102902.72;5069776;28;20467;-67
2022/10/06 10:10:17;;;;;;;7.95;2.03;;;;;;;15.21;72.25;102897.13;5071112;28;20181;-67
2022/10/06 10:12:58;;;;;;;9.68;1.92;;;;;;;15.18;72.59;102910.94;5071043;28;20024;-67
2022/10/06 10:15:25;;;;;;;15.13;2.17;;;;;;;15.19;71.41;102906.38;5071013;28;20032;-67
2022/10/06 10:17:50;;;;;;;4.93;1.42;;;;;;;15.19;73.54;102906.38;5070926;28;20520;-67
2022/10/06 10:20:37;;;;;;;12.73;1.80;;;;;;;15.23;72.64;102908.53;5070877;28;20082;-67
2022/10/06 10:23:17;;;;;;;4.68;1.83;;;;;;;15.19;70.62;102915.28;5070931;28;20271;-67
2022/10/06 10:26:01;;;;;;;10.20;2.17;;;;;;;15.21;72.28;102915.13;5070764;28;20028;-67
2022/10/06 10:28:34;;;;;;;9.88;2.97;;;;;;;15.11;70.48;102912.63;5070711;28;20430;-67
2022/10/06 10:31:14;;;;;;;7.15;2.78;;;;;;;15.15;69.37;102923.91;5070761;28;20428;-67
2022/10/06 10:34:12;;;;;;;8.38;2.65;;;;;;;15.17;69.36;102920.00;5070702;28;20225;-68
2022/10/06 10:36:55;;;;;;;5.90;2.00;;;;;;;14.99;68.96;102922.13;5047559;28;20127;-67
2022/10/06 10:39:34;;;;;;;6.75;1.80;;;;;;;14.89;69.45;102915.09;5070772;28;20384;-67
2022/10/06 10:42:07;;;;;;;9.27;2.17;;;;;;;15.02;69.02;102916.41;5070537;28;20613;-67
2022/10/06 10:44:43;;;;;;;11.23;2.75;;;;;;;15.15;68.45;102913.97;5070260;28;20046;-67
2022/10/06 10:47:21;;;;;;;11.25;2.00;;;;;;;15.42;69.75;102907.25;5070474;28;20033;-68
2022/10/06 10:49:55;;;;;;;7.07;1.77;;;;;;;15.57;66.83;102910.84;5070494;28;20024;-67
2022/10/06 10:52:26;;;;;;;7.28;2.08;;;;;;;15.58;67.58;102903.59;5070190;28;20032;-67
2022/10/06 10:55:17;;;;;;;11.52;2.38;;;;;;;15.67;68.83;102909.78;5070424;28;20031;-65
2022/10/06 10:57:44;;;;;;;4.50;1.95;;;;;;;15.72;67.21;102923.56;5070139;28;20035;-65
2022/10/06 11:00:20;;;;;;;7.85;2.20;;;;;;;15.71;66.50;102908.41;5070335;28;20040;-65
2022/10/06 11:02:45;;;;;;;6.65;2.50;;;;;;;15.67;65.05;102918.69;5069098;28;20379;-65
2022/10/06 11:05:48;;;;;;;5.55;1.70;;;;;;;15.68;65.96;102922.19;5069632;28;20036;-65
2022/10/06 11:08:37;;;;;;;4.80;2.17;;;;;;;15.83;65.65;102919.59;5067696;28;20032;-65
2022/10/06 11:11:09;;;;;;;5.93;2.05;;;;;;;15.73;62.80;102914.47;5065178;28;20063;-64
2022/10/06 11:13:41;;;;;;;13.38;3.70;;;;;;;15.75;64.06;102928.56;5065365;28;20020;-65
2022/10/06 11:16:30;;;;;;;8.50;3.03;;;;;;;15.75;64.08;102926.72;5065493;28;20017;-64
2022/10/06 11:19:07;;;;;;;11.52;2.72;;;;;;;15.77;63.20;102937.28;5065167;28;20028;-64
2022/10/06 11:21:41;;;;;;;9.27;3.42;;;;;;;15.76;63.77;102930.25;5065813;28;20020;-65
2022/10/06 11:24:42;;;;;;;8.32;2.72;;;;;;;15.88;64.67;102925.28;5065138;28;20025;-64
2022/10/06 11:27:16;;;;;;;8.73;2.90;;;;;;;16.04;62.70;102927.81;5065691;28;20023;-64
2022/10/06 11:30:12;;;;;;;9.23;2.40;;;;;;;16.13;63.90;102926.72;5065304;28;20123;-63
2022/10/06 11:33:08;;;;;;;5.45;2.28;;;;;;;16.16;64.57;102923.66;5065229;28;20078;-64
2022/10/06 11:35:37;;;;;;;9.43;2.50;;;;;;;16.23;62.26;102921.06;5065122;28;20104;-65
2022/10/06 11:38:17;;;;;;;9.90;2.85;;;;;;;16.32;64.11;102922.69;5065206;28;20033;-63
2022/10/06 11:40:54;;;;;;;12.18;3.65;;;;;;;16.27;62.86;102922.41;5064460;28;20028;-64
2022/10/06 11:43:46;;;;;;;5.95;3.75;;;;;;;16.24;63.86;102921.91;5064539;28;20509;-64
2022/10/06 11:46:41;;;;;;;11.90;2.72;;;;;;;16.14;61.99;102920.34;5064445;28;20109;-64
2022/10/06 11:49:28;;;;;;;8.13;3.55;;;;;;;16.15;62.79;102915.78;5065137;28;20020;-64